sensor_id;sensor_type;location;lat;lon;timestamp;temperature;humidity
39277;DHT22;63149;48.086;-1.606;2022-09-03T05:02:07;18.20;99.90
39277;DHT22;63149;48.086;-1.606;2022-09-03T05:04:34;18.20;99.90
39277;DHT22;63149;48.086;-1.606;2022-09-03T05:07:01;18.20;99.90
39277;DHT22;63149;48.086;-1.606;2022-09-03T05:09:28;18.20;99.90
39277;DHT22;63149;48.086;-1.606;2022-09-03T05:11:55;18.20;99.90
39277;DHT22;63149;48.086;-1.606;2022-09-03T05:14:22;18.20;99.90
39277;DHT22;63149;48.086;-1.606;2022-09-03T05:16:49;18.10;99.90
39277;DHT22;63149;48.086;-1.606;2022-09-03T05:19:17;18.20;99.90
39277;DHT22;63149;48.086;-1.606;2022-09-03T05:21:44;18.20;99.90
39277;DHT22;63149;48.086;-1.606;2022-09-03T05:24:11;18.20;99.90
39277;DHT22;63149;48.086;-1.606;2022-09-03T05:26:39;18.20;99.90
39277;DHT22;63149;48.086;-1.606;2022-09-03T05:29:06;18.20;99.90
39277;DHT22;63149;48.086;-1.606;2022-09-03T05:31:35;18.20;99.90
39277;DHT22;63149;48.086;-1.606;2022-09-03T05:34:04;18.10;99.90
39277;DHT22;63149;48.086;-1.606;2022-09-03T05:36:34;18.10;99.90
39277;DHT22;63149;48.086;-1.606;2022-09-03T05:39:01;18.10;99.90
39277;DHT22;63149;48.086;-1.606;2022-09-03T05:41:28;18.10;99.90
39277;DHT22;63149;48.086;-1.606;2022-09-03T05:43:56;18.10;99.90
39277;DHT22;63149;48.086;-1.606;2022-09-03T05:46:26;18.10;99.90
39277;DHT22;63149;48.086;-1.606;2022-09-03T05:48:56;18.00;99.90
39277;DHT22;63149;48.086;-1.606;2022-09-03T05:51:24;18.00;99.90
39277;DHT22;63149;48.086;-1.606;2022-09-03T05:53:52;18.00;99.90
39277;DHT22;63149;48.086;-1.606;2022-09-03T05:56:22;17.90;99.90
39277;DHT22;63149;48.086;-1.606;2022-09-03T05:58:50;18.00;99.90
39277;DHT22;63149;48.086;-1.606;2022-09-03T06:01:19;18.00;99.90
39277;DHT22;63149;48.086;-1.606;2022-09-03T06:03:51;18.00;99.90
39277;DHT22;63149;48.086;-1.606;2022-09-03T06:06:20;18.00;99.90
39277;DHT22;63149;48.086;-1.606;2022-09-03T06:08:51;18.00;99.90
39277;DHT22;63149;48.086;-1.606;2022-09-03T06:11:19;18.00;99.90
39277;DHT22;63149;48.086;-1.606;2022-09-03T06:13:48;18.00;99.90
39277;DHT22;63149;48.086;-1.606;2022-09-03T06:16:14;18.00;99.90
39277;DHT22;63149;48.086;-1.606;2022-09-03T06:18:41;18.10;99.90
39277;DHT22;63149;48.086;-1.606;2022-09-03T06:21:08;18.10;99.90
39277;DHT22;63149;48.086;-1.606;2022-09-03T06:23:35;18.10;99.90
39277;DHT22;63149;48.086;-1.606;2022-09-03T06:26:06;18.10;99.90
39277;DHT22;63149;48.086;-1.606;2022-09-03T06:28:34;18.20;99.90
39277;DHT22;63149;48.086;-1.606;2022-09-03T06:31:03;18.20;99.90
39277;DHT22;63149;48.086;-1.606;2022-09-03T06:33:33;18.20;99.90
39277;DHT22;63149;48.086;-1.606;2022-09-03T06:36:01;18.20;99.90
39277;DHT22;63149;48.086;-1.606;2022-09-03T06:38:30;18.10;99.90
39277;DHT22;63149;48.086;-1.606;2022-09-03T06:40:59;18.10;99.90
39277;DHT22;63149;48.086;-1.606;2022-09-03T06:43:30;18.10;99.90
39277;DHT22;63149;48.086;-1.606;2022-09-03T06:45:59;18.10;99.90
39277;DHT22;63149;48.086;-1.606;2022-09-03T06:48:28;18.10;99.90
39277;DHT22;63149;48.086;-1.606;2022-09-03T06:50:56;18.20;99.90
39277;DHT22;63149;48.086;-1.606;2022-09-03T06:53:25;18.10;99.90
39277;DHT22;63149;48.086;-1.606;2022-09-03T06:55:53;18.20;99.90
39277;DHT22;63149;48.086;-1.606;2022-09-03T06:58:20;18.20;99.90
39277;DHT22;63149;48.086;-1.606;2022-09-03T07:00:50;18.30;99.90
39277;DHT22;63149;48.086;-1.606;2022-09-03T07:03:19;18.40;99.90
39277;DHT22;63149;48.086;-1.606;2022-09-03T07:05:46;18.40;99.90
39277;DHT22;63149;48.086;-1.606;2022-09-03T07:08:13;18.40;99.90
39277;DHT22;63149;48.086;-1.606;2022-09-03T07:10:44;18.50;99.90
39277;DHT22;63149;48.086;-1.606;2022-09-03T07:13:12;18.50;99.90
39277;DHT22;63149;48.086;-1.606;2022-09-03T07:15:39;18.50;99.90
39277;DHT22;63149;48.086;-1.606;2022-09-03T07:18:08;18.60;99.90
39277;DHT22;63149;48.086;-1.606;2022-09-03T07:20:35;18.70;99.90
39277;DHT22;63149;48.086;-1.606;2022-09-03T07:23:01;18.80;99.90
39277;DHT22;63149;48.086;-1.606;2022-09-03T07:25:28;18.90;99.90
39277;DHT22;63149;48.086;-1.606;2022-09-03T07:27:56;18.90;99.90
39277;DHT22;63149;48.086;-1.606;2022-09-03T07:30:23;19.00;99.90
39277;DHT22;63149;48.086;-1.606;2022-09-03T07:32:51;19.10;99.90
39277;DHT22;63149;48.086;-1.606;2022-09-03T07:35:20;19.10;99.90
39277;DHT22;63149;48.086;-1.606;2022-09-03T07:37:50;19.20;99.90
39277;DHT22;63149;48.086;-1.606;2022-09-03T07:40:17;19.30;99.90
39277;DHT22;63149;48.086;-1.606;2022-09-03T07:42:44;19.40;99.90
39277;DHT22;63149;48.086;-1.606;2022-09-03T07:45:13;19.60;99.90
39277;DHT22;63149;48.086;-1.606;2022-09-03T07:47:45;19.70;99.90
39277;DHT22;63149;48.086;-1.606;2022-09-03T07:50:14;19.60;99.90
39277;DHT22;63149;48.086;-1.606;2022-09-03T07:52:43;19.50;99.90
39277;DHT22;63149;48.086;-1.606;2022-09-03T07:55:10;19.40;99.90
39277;DHT22;63149;48.086;-1.606;2022-09-03T07:57:37;19.40;99.90
39277;DHT22;63149;48.086;-1.606;2022-09-03T08:00:05;19.30;99.90
39277;DHT22;63149;48.086;-1.606;2022-09-03T08:02:33;19.30;99.90
39277;DHT22;63149;48.086;-1.606;2022-09-03T08:05:00;19.30;99.90
39277;DHT22;63149;48.086;-1.606;2022-09-03T08:07:28;19.50;99.90
39277;DHT22;63149;48.086;-1.606;2022-09-03T08:09:57;19.60;99.90
39277;DHT22;63149;48.086;-1.606;2022-09-03T08:12:24;19.70;99.90
39277;DHT22;63149;48.086;-1.606;2022-09-03T08:14:51;19.80;99.90
39277;DHT22;63149;48.086;-1.606;2022-09-03T08:17:17;20.10;99.90
39277;DHT22;63149;48.086;-1.606;2022-09-03T08:19:44;20.40;99.90
39277;DHT22;63149;48.086;-1.606;2022-09-03T08:22:12;20.40;99.90
39277;DHT22;63149;48.086;-1.606;2022-09-03T08:24:39;20.30;99.90
39277;DHT22;63149;48.086;-1.606;2022-09-03T08:27:08;20.20;99.90
39277;DHT22;63149;48.086;-1.606;2022-09-03T08:29:35;20.10;99.90
39277;DHT22;63149;48.086;-1.606;2022-09-03T08:32:03;20.20;99.90
39277;DHT22;63149;48.086;-1.606;2022-09-03T08:34:30;20.20;99.90
39277;DHT22;63149;48.086;-1.606;2022-09-03T08:36:57;20.30;99.90
39277;DHT22;63149;48.086;-1.606;2022-09-03T08:39:26;20.70;99.90
39277;DHT22;63149;48.086;-1.606;2022-09-03T08:42:20;20.60;99.90
39277;DHT22;63149;48.086;-1.606;2022-09-03T08:44:53;20.50;99.90
39277;DHT22;63149;48.086;-1.606;2022-09-03T08:47:24;20.40;99.90
39277;DHT22;63149;48.086;-1.606;2022-09-03T08:49:55;20.30;99.90
39277;DHT22;63149;48.086;-1.606;2022-09-03T08:52:27;20.40;99.90
39277;DHT22;63149;48.086;-1.606;2022-09-03T08:55:01;20.70;99.90
39277;DHT22;63149;48.086;-1.606;2022-09-03T08:57:39;20.60;99.90
39277;DHT22;63149;48.086;-1.606;2022-09-03T09:00:08;20.70;99.90
39277;DHT22;63149;48.086;-1.606;2022-09-03T09:02:43;20.70;99.90
39277;DHT22;63149;48.086;-1.606;2022-09-03T09:05:16;20.70;99.90
39277;DHT22;63149;48.086;-1.606;2022-09-03T09:07:50;20.90;99.90
39277;DHT22;63149;48.086;-1.606;2022-09-03T09:10:22;21.10;99.90
39277;DHT22;63149;48.086;-1.606;2022-09-03T09:13:02;21.30;99.90
39277;DHT22;63149;48.086;-1.606;2022-09-03T09:15:40;21.50;99.90
39277;DHT22;63149;48.086;-1.606;2022-09-03T09:18:15;21.90;99.90
39277;DHT22;63149;48.086;-1.606;2022-09-03T09:20:48;22.10;99.90
39277;DHT22;63149;48.086;-1.606;2022-09-03T09:23:21;22.30;99.90
39277;DHT22;63149;48.086;-1.606;2022-09-03T09:25:49;22.30;99.90
39277;DHT22;63149;48.086;-1.606;2022-09-03T09:28:20;22.80;99.90
39277;DHT22;63149;48.086;-1.606;2022-09-03T09:30:49;23.40;99.90
39277;DHT22;63149;48.086;-1.606;2022-09-03T09:33:17;23.70;99.90
39277;DHT22;63149;48.086;-1.606;2022-09-03T09:35:45;23.40;99.90
39277;DHT22;63149;48.086;-1.606;2022-09-03T09:38:13;23.40;99.90
39277;DHT22;63149;48.086;-1.606;2022-09-03T09:40:42;23.50;99.90
39277;DHT22;63149;48.086;-1.606;2022-09-03T09:43:11;23.70;99.90
39277;DHT22;63149;48.086;-1.606;2022-09-03T09:45:42;23.70;99.90
39277;DHT22;63149;48.086;-1.606;2022-09-03T09:48:15;23.30;99.90
39277;DHT22;63149;48.086;-1.606;2022-09-03T09:50:43;22.80;99.90
39277;DHT22;63149;48.086;-1.606;2022-09-03T09:53:11;22.70;99.90
39277;DHT22;63149;48.086;-1.606;2022-09-03T09:55:52;22.70;99.90
39277;DHT22;63149;48.086;-1.606;2022-09-03T09:58:21;22.80;99.90
39277;DHT22;63149;48.086;-1.606;2022-09-03T10:01:02;22.80;99.90
39277;DHT22;63149;48.086;-1.606;2022-09-03T10:03:34;23.00;99.90
39277;DHT22;63149;48.086;-1.606;2022-09-03T10:06:04;23.30;99.90
39277;DHT22;63149;48.086;-1.606;2022-09-03T10:08:45;23.40;99.90
39277;DHT22;63149;48.086;-1.606;2022-09-03T10:11:12;23.10;99.90
39277;DHT22;63149;48.086;-1.606;2022-09-03T10:13:42;22.80;99.90
39277;DHT22;63149;48.086;-1.606;2022-09-03T10:16:18;22.50;99.90
39277;DHT22;63149;48.086;-1.606;2022-09-03T10:18:52;22.30;99.90
39277;DHT22;63149;48.086;-1.606;2022-09-03T10:21:28;22.20;99.90
39277;DHT22;63149;48.086;-1.606;2022-09-03T10:24:00;22.20;99.90
39277;DHT22;63149;48.086;-1.606;2022-09-03T10:26:30;22.50;99.90
39277;DHT22;63149;48.086;-1.606;2022-09-03T10:29:00;23.30;99.90
39277;DHT22;63149;48.086;-1.606;2022-09-03T10:31:41;23.20;99.90
39277;DHT22;63149;48.086;-1.606;2022-09-03T10:34:15;23.00;99.90
39277;DHT22;63149;48.086;-1.606;2022-09-03T10:36:48;22.70;99.90
39277;DHT22;63149;48.086;-1.606;2022-09-03T10:39:22;22.80;99.90
39277;DHT22;63149;48.086;-1.606;2022-09-03T10:42:01;22.80;99.90
39277;DHT22;63149;48.086;-1.606;2022-09-03T10:44:52;22.70;99.90
39277;DHT22;63149;48.086;-1.606;2022-09-03T10:47:42;22.70;99.90
39277;DHT22;63149;48.086;-1.606;2022-09-03T10:50:16;23.30;99.90
39277;DHT22;63149;48.086;-1.606;2022-09-03T10:53:03;23.80;99.90
39277;DHT22;63149;48.086;-1.606;2022-09-03T10:55:40;24.20;99.90
39277;DHT22;63149;48.086;-1.606;2022-09-03T10:58:22;23.70;99.90
39277;DHT22;63149;48.086;-1.606;2022-09-03T11:01:01;23.30;99.90
39277;DHT22;63149;48.086;-1.606;2022-09-03T11:03:42;23.20;99.90
39277;DHT22;63149;48.086;-1.606;2022-09-03T11:06:13;23.80;99.90
39277;DHT22;63149;48.086;-1.606;2022-09-03T11:08:45;24.50;99.90
39277;DHT22;63149;48.086;-1.606;2022-09-03T11:11:17;24.70;99.90
39277;DHT22;63149;48.086;-1.606;2022-09-03T11:13:49;25.50;99.90
39277;DHT22;63149;48.086;-1.606;2022-09-03T11:16:22;26.30;99.90
39277;DHT22;63149;48.086;-1.606;2022-09-03T11:18:54;27.30;99.90
39277;DHT22;63149;48.086;-1.606;2022-09-03T11:21:25;28.10;99.90
39277;DHT22;63149;48.086;-1.606;2022-09-03T11:24:00;28.50;99.90
39277;DHT22;63149;48.086;-1.606;2022-09-03T11:26:32;27.50;99.90
39277;DHT22;63149;48.086;-1.606;2022-09-03T11:29:04;27.60;99.90
39277;DHT22;63149;48.086;-1.606;2022-09-03T11:31:44;27.00;99.90
39277;DHT22;63149;48.086;-1.606;2022-09-03T11:34:24;26.80;99.90
39277;DHT22;63149;48.086;-1.606;2022-09-03T11:36:52;28.10;99.90
39277;DHT22;63149;48.086;-1.606;2022-09-03T11:39:34;28.10;99.90
39277;DHT22;63149;48.086;-1.606;2022-09-03T11:42:03;28.10;99.90
39277;DHT22;63149;48.086;-1.606;2022-09-03T11:44:36;28.10;99.90
39277;DHT22;63149;48.086;-1.606;2022-09-03T11:47:14;28.70;99.90
39277;DHT22;63149;48.086;-1.606;2022-09-03T11:49:47;28.20;99.90
39277;DHT22;63149;48.086;-1.606;2022-09-03T11:52:25;27.90;99.90
39277;DHT22;63149;48.086;-1.606;2022-09-03T11:54:52;27.40;99.90
39277;DHT22;63149;48.086;-1.606;2022-09-03T11:57:24;26.80;99.90
39277;DHT22;63149;48.086;-1.606;2022-09-03T11:59:52;27.00;99.90
39277;DHT22;63149;48.086;-1.606;2022-09-03T12:02:25;26.80;99.90
39277;DHT22;63149;48.086;-1.606;2022-09-03T12:05:10;27.60;99.90
39277;DHT22;63149;48.086;-1.606;2022-09-03T12:08:04;29.20;99.90
39277;DHT22;63149;48.086;-1.606;2022-09-03T12:10:44;29.50;99.90
39277;DHT22;63149;48.086;-1.606;2022-09-03T12:13:21;30.40;99.90
39277;DHT22;63149;48.086;-1.606;2022-09-03T12:16:16;29.60;99.90
39277;DHT22;63149;48.086;-1.606;2022-09-03T12:18:48;28.00;99.90
39277;DHT22;63149;48.086;-1.606;2022-09-03T12:21:19;28.00;99.90
39277;DHT22;63149;48.086;-1.606;2022-09-03T12:23:47;29.90;99.90
39277;DHT22;63149;48.086;-1.606;2022-09-03T12:26:16;27.80;99.90
39277;DHT22;63149;48.086;-1.606;2022-09-03T12:28:49;26.90;99.90
39277;DHT22;63149;48.086;-1.606;2022-09-03T12:31:19;26.40;99.90
39277;DHT22;63149;48.086;-1.606;2022-09-03T12:33:49;26.10;99.90
39277;DHT22;63149;48.086;-1.606;2022-09-03T12:36:20;28.20;99.90
39277;DHT22;63149;48.086;-1.606;2022-09-03T12:38:47;30.00;99.90
39277;DHT22;63149;48.086;-1.606;2022-09-03T12:41:23;31.50;99.90
39277;DHT22;63149;48.086;-1.606;2022-09-03T12:43:52;31.90;99.90
39277;DHT22;63149;48.086;-1.606;2022-09-03T12:46:22;31.90;99.90
39277;DHT22;63149;48.086;-1.606;2022-09-03T12:48:54;30.40;99.90
39277;DHT22;63149;48.086;-1.606;2022-09-03T12:51:22;29.20;99.90
39277;DHT22;63149;48.086;-1.606;2022-09-03T12:53:50;28.40;99.90
39277;DHT22;63149;48.086;-1.606;2022-09-03T12:56:20;27.40;99.90
39277;DHT22;63149;48.086;-1.606;2022-09-03T12:58:51;26.80;99.90
39277;DHT22;63149;48.086;-1.606;2022-09-03T13:01:25;26.20;99.90
39277;DHT22;63149;48.086;-1.606;2022-09-03T13:03:57;25.90;99.90
39277;DHT22;63149;48.086;-1.606;2022-09-03T13:06:31;25.70;99.90
39277;DHT22;63149;48.086;-1.606;2022-09-03T13:09:02;25.60;99.90
39277;DHT22;63149;48.086;-1.606;2022-09-03T13:11:33;25.60;99.90
39277;DHT22;63149;48.086;-1.606;2022-09-03T13:14:03;25.50;99.90
39277;DHT22;63149;48.086;-1.606;2022-09-03T13:16:59;25.50;99.90
39277;DHT22;63149;48.086;-1.606;2022-09-03T13:19:36;25.50;99.90
39277;DHT22;63149;48.086;-1.606;2022-09-03T13:22:17;25.30;99.90
39277;DHT22;63149;48.086;-1.606;2022-09-03T13:24:56;25.20;99.90
39277;DHT22;63149;48.086;-1.606;2022-09-03T13:27:32;25.20;99.90
39277;DHT22;63149;48.086;-1.606;2022-09-03T13:30:04;25.00;99.90
39277;DHT22;63149;48.086;-1.606;2022-09-03T13:32:43;25.10;99.90
39277;DHT22;63149;48.086;-1.606;2022-09-03T13:35:16;25.10;99.90
39277;DHT22;63149;48.086;-1.606;2022-09-03T13:37:55;24.80;99.90
39277;DHT22;63149;48.086;-1.606;2022-09-03T13:40:31;24.60;99.90
39277;DHT22;63149;48.086;-1.606;2022-09-03T13:43:02;24.40;99.90
39277;DHT22;63149;48.086;-1.606;2022-09-03T13:45:36;24.50;99.90
39277;DHT22;63149;48.086;-1.606;2022-09-03T13:48:09;24.40;99.90
39277;DHT22;63149;48.086;-1.606;2022-09-03T13:51:02;24.50;99.90
39277;DHT22;63149;48.086;-1.606;2022-09-03T13:53:43;24.50;99.90
39277;DHT22;63149;48.086;-1.606;2022-09-03T13:56:20;24.50;99.90
39277;DHT22;63149;48.086;-1.606;2022-09-03T13:58:55;24.50;99.90
39277;DHT22;63149;48.086;-1.606;2022-09-03T14:01:26;24.50;99.90
39277;DHT22;63149;48.086;-1.606;2022-09-03T14:04:02;24.60;99.90
39277;DHT22;63149;48.086;-1.606;2022-09-03T14:06:38;24.40;99.90
39277;DHT22;63149;48.086;-1.606;2022-09-03T14:09:13;24.40;99.90
39277;DHT22;63149;48.086;-1.606;2022-09-03T14:11:51;24.30;99.90
39277;DHT22;63149;48.086;-1.606;2022-09-03T14:14:28;24.30;99.90
39277;DHT22;63149;48.086;-1.606;2022-09-03T14:16:59;24.20;99.90
39277;DHT22;63149;48.086;-1.606;2022-09-03T14:19:35;24.10;99.90
39277;DHT22;63149;48.086;-1.606;2022-09-03T14:22:07;24.10;99.90
39277;DHT22;63149;48.086;-1.606;2022-09-03T14:24:43;24.10;99.90
39277;DHT22;63149;48.086;-1.606;2022-09-03T14:27:12;24.00;99.90
39277;DHT22;63149;48.086;-1.606;2022-09-03T14:29:50;24.10;99.90
39277;DHT22;63149;48.086;-1.606;2022-09-03T14:32:26;24.10;99.90
39277;DHT22;63149;48.086;-1.606;2022-09-03T14:35:04;24.00;99.90
39277;DHT22;63149;48.086;-1.606;2022-09-03T14:37:47;24.00;99.90
39277;DHT22;63149;48.086;-1.606;2022-09-03T14:40:18;23.90;99.90
39277;DHT22;63149;48.086;-1.606;2022-09-03T14:45:54;23.80;99.90
39277;DHT22;63149;48.086;-1.606;2022-09-03T14:51:31;23.80;99.90
39277;DHT22;63149;48.086;-1.606;2022-09-03T14:54:26;23.90;99.90
39277;DHT22;63149;48.086;-1.606;2022-09-03T14:57:12;23.80;99.90
39277;DHT22;63149;48.086;-1.606;2022-09-03T15:00:02;23.80;99.90
39277;DHT22;63149;48.086;-1.606;2022-09-03T15:02:58;23.70;99.90
39277;DHT22;63149;48.086;-1.606;2022-09-03T15:05:46;23.70;99.90
39277;DHT22;63149;48.086;-1.606;2022-09-03T15:08:26;23.60;99.90
39277;DHT22;63149;48.086;-1.606;2022-09-03T15:10:58;23.60;99.90
39277;DHT22;63149;48.086;-1.606;2022-09-03T15:13:30;23.70;99.90
39277;DHT22;63149;48.086;-1.606;2022-09-03T15:16:07;23.60;99.90
39277;DHT22;63149;48.086;-1.606;2022-09-03T15:18:47;23.60;99.90
39277;DHT22;63149;48.086;-1.606;2022-09-03T15:21:20;23.60;99.90
39277;DHT22;63149;48.086;-1.606;2022-09-03T15:24:01;23.60;99.90
39277;DHT22;63149;48.086;-1.606;2022-09-03T15:27:00;23.60;99.90
39277;DHT22;63149;48.086;-1.606;2022-09-03T15:29:43;23.50;99.90
39277;DHT22;63149;48.086;-1.606;2022-09-03T15:32:21;23.40;99.90
39277;DHT22;63149;48.086;-1.606;2022-09-03T15:35:03;23.40;99.90
39277;DHT22;63149;48.086;-1.606;2022-09-03T15:37:36;23.40;99.90
39277;DHT22;63149;48.086;-1.606;2022-09-03T15:40:07;23.40;99.90
39277;DHT22;63149;48.086;-1.606;2022-09-03T15:42:35;23.40;99.90
39277;DHT22;63149;48.086;-1.606;2022-09-03T15:45:07;23.50;99.90
39277;DHT22;63149;48.086;-1.606;2022-09-03T15:47:50;23.50;99.90
39277;DHT22;63149;48.086;-1.606;2022-09-03T15:50:28;23.40;99.90
39277;DHT22;63149;48.086;-1.606;2022-09-03T15:53:01;23.40;99.90
39277;DHT22;63149;48.086;-1.606;2022-09-03T15:55:33;23.40;99.90
39277;DHT22;63149;48.086;-1.606;2022-09-03T15:58:07;23.40;99.90
39277;DHT22;63149;48.086;-1.606;2022-09-03T16:00:54;23.40;99.90
39277;DHT22;63149;48.086;-1.606;2022-09-03T16:03:34;23.40;99.90
39277;DHT22;63149;48.086;-1.606;2022-09-03T16:06:23;23.40;99.90
39277;DHT22;63149;48.086;-1.606;2022-09-03T16:08:53;23.40;99.90
39277;DHT22;63149;48.086;-1.606;2022-09-03T16:11:35;23.30;99.90
39277;DHT22;63149;48.086;-1.606;2022-09-03T16:14:07;23.40;99.90
39277;DHT22;63149;48.086;-1.606;2022-09-03T16:16:50;23.30;99.90
39277;DHT22;63149;48.086;-1.606;2022-09-03T16:19:23;23.30;99.90
39277;DHT22;63149;48.086;-1.606;2022-09-03T16:21:57;23.20;99.90
39277;DHT22;63149;48.086;-1.606;2022-09-03T16:24:31;23.10;99.90
39277;DHT22;63149;48.086;-1.606;2022-09-03T16:27:03;23.10;99.90
39277;DHT22;63149;48.086;-1.606;2022-09-03T16:29:33;23.00;99.90
39277;DHT22;63149;48.086;-1.606;2022-09-03T16:32:26;23.00;99.90
39277;DHT22;63149;48.086;-1.606;2022-09-03T16:35:07;23.00;99.90
39277;DHT22;63149;48.086;-1.606;2022-09-03T16:37:46;23.00;99.90
39277;DHT22;63149;48.086;-1.606;2022-09-03T16:40:25;22.90;99.90
39277;DHT22;63149;48.086;-1.606;2022-09-03T16:42:59;22.90;99.90
39277;DHT22;63149;48.086;-1.606;2022-09-03T16:45:37;22.90;99.90
39277;DHT22;63149;48.086;-1.606;2022-09-03T16:48:20;22.80;99.90
39277;DHT22;63149;48.086;-1.606;2022-09-03T16:51:02;22.90;99.90
39277;DHT22;63149;48.086;-1.606;2022-09-03T16:53:42;22.80;99.90
39277;DHT22;63149;48.086;-1.606;2022-09-03T16:56:31;22.80;99.90
39277;DHT22;63149;48.086;-1.606;2022-09-03T16:59:09;22.70;99.90
39277;DHT22;63149;48.086;-1.606;2022-09-03T17:01:47;22.70;99.90
39277;DHT22;63149;48.086;-1.606;2022-09-03T17:04:34;22.60;99.90
39277;DHT22;63149;48.086;-1.606;2022-09-03T17:07:18;22.50;99.90
39277;DHT22;63149;48.086;-1.606;2022-09-03T17:09:54;22.50;99.90
39277;DHT22;63149;48.086;-1.606;2022-09-03T17:12:29;22.40;99.90
39277;DHT22;63149;48.086;-1.606;2022-09-03T17:20:50;22.20;99.90
39277;DHT22;63149;48.086;-1.606;2022-09-03T17:23:34;22.10;99.90
39277;DHT22;63149;48.086;-1.606;2022-09-03T17:26:09;22.10;99.90
39277;DHT22;63149;48.086;-1.606;2022-09-03T17:28:53;22.10;99.90
39277;DHT22;63149;48.086;-1.606;2022-09-03T17:31:30;22.10;99.90
39277;DHT22;63149;48.086;-1.606;2022-09-03T17:34:06;22.00;99.90
39277;DHT22;63149;48.086;-1.606;2022-09-03T17:36:50;22.00;99.90
39277;DHT22;63149;48.086;-1.606;2022-09-03T17:42:24;21.90;99.90
39277;DHT22;63149;48.086;-1.606;2022-09-03T17:45:02;21.90;99.90
39277;DHT22;63149;48.086;-1.606;2022-09-03T17:47:46;21.70;99.90
39277;DHT22;63149;48.086;-1.606;2022-09-03T17:50:19;21.60;99.90
39277;DHT22;63149;48.086;-1.606;2022-09-03T17:52:52;21.60;99.90
39277;DHT22;63149;48.086;-1.606;2022-09-03T17:55:28;21.50;99.90
39277;DHT22;63149;48.086;-1.606;2022-09-03T17:58:00;21.50;99.90
39277;DHT22;63149;48.086;-1.606;2022-09-03T18:00:33;21.40;99.90
39277;DHT22;63149;48.086;-1.606;2022-09-03T18:03:09;21.30;99.90
39277;DHT22;63149;48.086;-1.606;2022-09-03T18:05:42;21.20;99.90
39277;DHT22;63149;48.086;-1.606;2022-09-03T18:08:17;21.20;99.90
39277;DHT22;63149;48.086;-1.606;2022-09-03T18:10:53;21.20;99.90
39277;DHT22;63149;48.086;-1.606;2022-09-03T18:13:30;21.10;99.90
39277;DHT22;63149;48.086;-1.606;2022-09-03T18:16:06;21.00;99.90
39277;DHT22;63149;48.086;-1.606;2022-09-03T18:18:41;21.00;99.90
39277;DHT22;63149;48.086;-1.606;2022-09-03T18:21:15;20.90;99.90
39277;DHT22;63149;48.086;-1.606;2022-09-03T18:24:10;20.90;99.90
39277;DHT22;63149;48.086;-1.606;2022-09-03T18:27:05;20.80;99.90
39277;DHT22;63149;48.086;-1.606;2022-09-03T18:29:55;20.70;99.90
39277;DHT22;63149;48.086;-1.606;2022-09-03T18:32:42;20.60;99.90
39277;DHT22;63149;48.086;-1.606;2022-09-03T18:35:29;20.50;99.90
39277;DHT22;63149;48.086;-1.606;2022-09-03T18:38:22;20.50;99.90
39277;DHT22;63149;48.086;-1.606;2022-09-03T18:41:22;20.40;99.90
39277;DHT22;63149;48.086;-1.606;2022-09-03T18:44:17;20.40;99.90
39277;DHT22;63149;48.086;-1.606;2022-09-03T18:47:16;20.30;99.90
39277;DHT22;63149;48.086;-1.606;2022-09-03T18:50:12;20.30;99.90
39277;DHT22;63149;48.086;-1.606;2022-09-03T18:53:02;20.20;99.90
39277;DHT22;63149;48.086;-1.606;2022-09-03T18:55:56;20.10;99.90
39277;DHT22;63149;48.086;-1.606;2022-09-03T18:58:59;20.10;99.90
39277;DHT22;63149;48.086;-1.606;2022-09-03T19:01:46;20.10;99.90
39277;DHT22;63149;48.086;-1.606;2022-09-03T19:04:41;20.00;99.90
39277;DHT22;63149;48.086;-1.606;2022-09-03T19:07:40;19.80;99.90
39277;DHT22;63149;48.086;-1.606;2022-09-03T19:10:35;19.80;99.90
39277;DHT22;63149;48.086;-1.606;2022-09-03T19:13:29;19.80;99.90
39277;DHT22;63149;48.086;-1.606;2022-09-03T19:16:20;19.70;99.90
39277;DHT22;63149;48.086;-1.606;2022-09-03T19:19:28;19.70;99.90
39277;DHT22;63149;48.086;-1.606;2022-09-03T19:22:25;19.70;99.90
39277;DHT22;63149;48.086;-1.606;2022-09-03T19:25:13;19.60;99.90
39277;DHT22;63149;48.086;-1.606;2022-09-03T19:28:10;19.50;99.90
39277;DHT22;63149;48.086;-1.606;2022-09-03T19:34:37;19.40;99.90
39277;DHT22;63149;48.086;-1.606;2022-09-03T19:37:30;19.40;99.90
39277;DHT22;63149;48.086;-1.606;2022-09-03T19:40:31;19.40;99.90
39277;DHT22;63149;48.086;-1.606;2022-09-03T19:43:22;19.30;99.90
39277;DHT22;63149;48.086;-1.606;2022-09-03T19:46:14;19.10;99.90
39277;DHT22;63149;48.086;-1.606;2022-09-03T19:49:08;19.10;99.90
39277;DHT22;63149;48.086;-1.606;2022-09-03T19:52:03;19.10;99.90
39277;DHT22;63149;48.086;-1.606;2022-09-03T19:54:53;19.10;99.90
39277;DHT22;63149;48.086;-1.606;2022-09-03T19:57:39;19.10;99.90
39277;DHT22;63149;48.086;-1.606;2022-09-03T20:00:24;19.00;99.90
39277;DHT22;63149;48.086;-1.606;2022-09-03T20:03:10;18.90;99.90
39277;DHT22;63149;48.086;-1.606;2022-09-03T20:05:56;18.90;99.90
39277;DHT22;63149;48.086;-1.606;2022-09-03T20:08:42;18.90;99.90
39277;DHT22;63149;48.086;-1.606;2022-09-03T20:11:28;18.90;99.90
39277;DHT22;63149;48.086;-1.606;2022-09-03T20:13:57;18.80;99.90
39277;DHT22;63149;48.086;-1.606;2022-09-03T20:16:47;18.90;99.90
39277;DHT22;63149;48.086;-1.606;2022-09-03T20:19:22;18.80;99.90
39277;DHT22;63149;48.086;-1.606;2022-09-03T20:21:56;18.80;99.90
39277;DHT22;63149;48.086;-1.606;2022-09-03T20:24:35;18.70;99.90
39277;DHT22;63149;48.086;-1.606;2022-09-03T20:27:14;18.70;99.90
39277;DHT22;63149;48.086;-1.606;2022-09-03T20:29:53;18.70;99.90
39277;DHT22;63149;48.086;-1.606;2022-09-03T20:35:25;18.60;99.90
39277;DHT22;63149;48.086;-1.606;2022-09-03T20:38:00;18.60;99.90
39277;DHT22;63149;48.086;-1.606;2022-09-03T20:40:41;18.50;99.90
39277;DHT22;63149;48.086;-1.606;2022-09-03T20:43:37;18.40;99.90
39277;DHT22;63149;48.086;-1.606;2022-09-03T20:46:17;18.40;99.90
39277;DHT22;63149;48.086;-1.606;2022-09-03T20:48:52;18.40;99.90
39277;DHT22;63149;48.086;-1.606;2022-09-03T20:51:26;18.40;99.90
39277;DHT22;63149;48.086;-1.606;2022-09-03T20:54:04;18.30;99.90
39277;DHT22;63149;48.086;-1.606;2022-09-03T20:56:50;18.20;99.90
39277;DHT22;63149;48.086;-1.606;2022-09-03T20:59:29;18.20;99.90
39277;DHT22;63149;48.086;-1.606;2022-09-03T21:02:03;18.20;99.90
39277;DHT22;63149;48.086;-1.606;2022-09-03T21:04:43;18.10;99.90
39277;DHT22;63149;48.086;-1.606;2022-09-03T21:07:19;18.10;99.90
39277;DHT22;63149;48.086;-1.606;2022-09-03T21:09:53;18.00;99.90
39277;DHT22;63149;48.086;-1.606;2022-09-03T21:12:33;17.90;99.90
39277;DHT22;63149;48.086;-1.606;2022-09-03T21:15:08;17.80;99.90
39277;DHT22;63149;48.086;-1.606;2022-09-03T21:17:47;17.90;99.90
39277;DHT22;63149;48.086;-1.606;2022-09-03T21:20:26;17.80;99.90
39277;DHT22;63149;48.086;-1.606;2022-09-03T21:23:08;17.90;99.90
39277;DHT22;63149;48.086;-1.606;2022-09-03T21:25:39;17.80;99.90
39277;DHT22;63149;48.086;-1.606;2022-09-03T21:28:13;17.80;99.90
39277;DHT22;63149;48.086;-1.606;2022-09-03T21:30:46;17.80;99.90